sensor_id;sensor_type;location;lat;lon;timestamp;P1;durP1;ratioP1;P2;durP2;ratioP2
69485;SDS011;56677;51.710;5.366;2023-04-03T06:26:45;3.50;;;2.10;;
69485;SDS011;56677;51.710;5.366;2023-04-03T06:29:10;2.00;;;1.63;;
69485;SDS011;56677;51.710;5.366;2023-04-03T06:31:35;3.55;;;1.40;;
69485;SDS011;56677;51.710;5.366;2023-04-03T06:34:00;3.87;;;2.13;;
69485;SDS011;56677;51.710;5.366;2023-04-03T06:36:25;2.72;;;1.60;;
69485;SDS011;56677;51.710;5.366;2023-04-03T06:38:50;1.80;;;1.08;;
69485;SDS011;56677;51.710;5.366;2023-04-03T06:41:15;6.30;;;1.63;;
69485;SDS011;56677;51.710;5.366;2023-04-03T06:43:41;3.33;;;1.48;;
69485;SDS011;56677;51.710;5.366;2023-04-03T06:46:06;1.85;;;1.40;;
69485;SDS011;56677;51.710;5.366;2023-04-03T06:48:31;3.15;;;1.67;;
69485;SDS011;56677;51.710;5.366;2023-04-03T06:50:56;2.30;;;1.63;;
69485;SDS011;56677;51.710;5.366;2023-04-03T06:53:21;3.37;;;1.67;;
69485;SDS011;56677;51.710;5.366;2023-04-03T06:55:47;4.22;;;1.55;;
69485;SDS011;56677;51.710;5.366;2023-04-03T06:58:12;5.03;;;2.07;;
69485;SDS011;56677;51.710;5.366;2023-04-03T07:00:37;2.47;;;1.77;;
69485;SDS011;56677;51.710;5.366;2023-04-03T07:03:02;2.90;;;1.48;;
69485;SDS011;56677;51.710;5.366;2023-04-03T07:05:27;2.00;;;1.60;;
69485;SDS011;56677;51.710;5.366;2023-04-03T07:07:52;4.20;;;1.48;;
69485;SDS011;56677;51.710;5.366;2023-04-03T07:10:18;3.28;;;1.50;;
69485;SDS011;56677;51.710;5.366;2023-04-03T07:12:43;2.03;;;1.27;;
69485;SDS011;56677;51.710;5.366;2023-04-03T07:15:09;5.28;;;1.70;;
69485;SDS011;56677;51.710;5.366;2023-04-03T07:17:34;2.90;;;1.70;;
69485;SDS011;56677;51.710;5.366;2023-04-03T07:19:59;1.77;;;1.30;;
69485;SDS011;56677;51.710;5.366;2023-04-03T07:22:24;2.10;;;1.30;;
69485;SDS011;56677;51.710;5.366;2023-04-03T07:24:49;2.97;;;1.40;;
69485;SDS011;56677;51.710;5.366;2023-04-03T07:27:15;2.47;;;1.50;;
69485;SDS011;56677;51.710;5.366;2023-04-03T07:29:40;2.70;;;1.40;;
69485;SDS011;56677;51.710;5.366;2023-04-03T07:32:05;1.93;;;1.47;;
69485;SDS011;56677;51.710;5.366;2023-04-03T07:34:31;2.17;;;1.33;;
69485;SDS011;56677;51.710;5.366;2023-04-03T07:36:56;3.97;;;1.40;;
69485;SDS011;56677;51.710;5.366;2023-04-03T07:39:21;4.68;;;1.45;;
69485;SDS011;56677;51.710;5.366;2023-04-03T07:41:46;2.00;;;0.97;;
69485;SDS011;56677;51.710;5.366;2023-04-03T07:44:11;3.67;;;1.80;;
69485;SDS011;56677;51.710;5.366;2023-04-03T07:46:37;2.47;;;1.38;;
69485;SDS011;56677;51.710;5.366;2023-04-03T07:49:02;2.80;;;1.40;;
69485;SDS011;56677;51.710;5.366;2023-04-03T07:51:27;2.83;;;1.20;;
69485;SDS011;56677;51.710;5.366;2023-04-03T07:53:52;2.03;;;1.42;;
69485;SDS011;56677;51.710;5.366;2023-04-03T07:56:17;3.15;;;1.50;;
69485;SDS011;56677;51.710;5.366;2023-04-03T07:58:42;2.63;;;1.50;;
69485;SDS011;56677;51.710;5.366;2023-04-03T08:01:07;2.38;;;1.35;;
69485;SDS011;56677;51.710;5.366;2023-04-03T08:03:33;2.63;;;1.70;;
69485;SDS011;56677;51.710;5.366;2023-04-03T08:06:04;3.95;;;1.50;;
69485;SDS011;56677;51.710;5.366;2023-04-03T08:08:30;4.78;;;1.55;;
69485;SDS011;56677;51.710;5.366;2023-04-03T08:10:57;3.70;;;1.70;;
69485;SDS011;56677;51.710;5.366;2023-04-03T08:13:23;3.75;;;1.65;;
69485;SDS011;56677;51.710;5.366;2023-04-03T08:15:48;4.97;;;1.47;;
69485;SDS011;56677;51.710;5.366;2023-04-03T08:18:14;6.22;;;1.33;;
69485;SDS011;56677;51.710;5.366;2023-04-03T08:20:39;6.60;;;1.60;;
69485;SDS011;56677;51.710;5.366;2023-04-03T08:23:04;5.13;;;1.23;;
69485;SDS011;56677;51.710;5.366;2023-04-03T08:25:29;4.07;;;1.65;;
69485;SDS011;56677;51.710;5.366;2023-04-03T08:27:54;8.38;;;1.30;;
69485;SDS011;56677;51.710;5.366;2023-04-03T08:30:20;2.63;;;1.27;;
69485;SDS011;56677;51.710;5.366;2023-04-03T08:32:45;3.70;;;1.33;;
69485;SDS011;56677;51.710;5.366;2023-04-03T08:35:10;5.07;;;1.30;;
69485;SDS011;56677;51.710;5.366;2023-04-03T08:37:35;4.67;;;1.20;;
69485;SDS011;56677;51.710;5.366;2023-04-03T08:40:01;4.60;;;1.53;;
69485;SDS011;56677;51.710;5.366;2023-04-03T08:42:45;5.63;;;1.60;;
69485;SDS011;56677;51.710;5.366;2023-04-03T08:45:12;5.07;;;1.35;;
69485;SDS011;56677;51.710;5.366;2023-04-03T08:47:40;4.65;;;1.48;;
69485;SDS011;56677;51.710;5.366;2023-04-03T08:50:30;4.38;;;1.33;;
69485;SDS011;56677;51.710;5.366;2023-04-03T08:52:55;4.63;;;1.85;;
69485;SDS011;56677;51.710;5.366;2023-04-03T08:55:54;2.83;;;0.80;;
69485;SDS011;56677;51.710;5.366;2023-04-03T08:58:14;2.80;;;1.38;;
69485;SDS011;56677;51.710;5.366;2023-04-03T09:03:10;3.60;;;1.48;;
69485;SDS011;56677;51.710;5.366;2023-04-03T09:10:47;3.40;;;1.50;;
69485;SDS011;56677;51.710;5.366;2023-04-03T09:15:58;3.78;;;1.50;;
69485;SDS011;56677;51.710;5.366;2023-04-03T09:18:35;2.97;;;1.20;;
69485;SDS011;56677;51.710;5.366;2023-04-03T09:21:13;3.75;;;1.08;;
69485;SDS011;56677;51.710;5.366;2023-04-03T09:23:48;2.80;;;1.42;;
69485;SDS011;56677;51.710;5.366;2023-04-03T09:26:18;2.95;;;1.40;;
69485;SDS011;56677;51.710;5.366;2023-04-03T09:28:44;4.47;;;1.50;;
69485;SDS011;56677;51.710;5.366;2023-04-03T09:31:14;5.20;;;1.30;;
69485;SDS011;56677;51.710;5.366;2023-04-03T09:33:41;5.10;;;1.47;;
69485;SDS011;56677;51.710;5.366;2023-04-03T09:36:06;2.90;;;1.10;;
69485;SDS011;56677;51.710;5.366;2023-04-03T09:38:31;3.67;;;1.63;;
69485;SDS011;56677;51.710;5.366;2023-04-03T09:41:04;5.43;;;1.25;;
69485;SDS011;56677;51.710;5.366;2023-04-03T09:43:31;3.78;;;1.33;;
69485;SDS011;56677;51.710;5.366;2023-04-03T09:46:15;2.97;;;1.23;;
69485;SDS011;56677;51.710;5.366;2023-04-03T09:48:41;3.23;;;1.37;;
69485;SDS011;56677;51.710;5.366;2023-04-03T09:51:15;6.82;;;1.10;;
69485;SDS011;56677;51.710;5.366;2023-04-03T09:53:41;6.65;;;1.27;;
69485;SDS011;56677;51.710;5.366;2023-04-03T09:58:42;3.08;;;1.30;;
69485;SDS011;56677;51.710;5.366;2023-04-03T10:01:19;2.30;;;1.13;;
69485;SDS011;56677;51.710;5.366;2023-04-03T10:03:46;2.97;;;1.42;;
69485;SDS011;56677;51.710;5.366;2023-04-03T10:06:26;3.95;;;1.75;;
69485;SDS011;56677;51.710;5.366;2023-04-03T10:08:58;2.72;;;1.13;;
69485;SDS011;56677;51.710;5.366;2023-04-03T10:11:24;9.00;;;1.30;;
69485;SDS011;56677;51.710;5.366;2023-04-03T10:13:53;4.15;;;1.20;;
69485;SDS011;56677;51.710;5.366;2023-04-03T10:16:26;3.33;;;1.40;;
69485;SDS011;56677;51.710;5.366;2023-04-03T10:19:02;4.60;;;1.38;;
69485;SDS011;56677;51.710;5.366;2023-04-03T10:21:45;3.67;;;1.20;;
69485;SDS011;56677;51.710;5.366;2023-04-03T10:24:13;2.45;;;1.05;;
69485;SDS011;56677;51.710;5.366;2023-04-03T10:26:52;3.08;;;1.10;;
69485;SDS011;56677;51.710;5.366;2023-04-03T10:29:25;4.23;;;1.17;;
69485;SDS011;56677;51.710;5.366;2023-04-03T10:49:50;5.30;;;1.52;;
69485;SDS011;56677;51.710;5.366;2023-04-03T10:55:01;5.30;;;1.70;;
69485;SDS011;56677;51.710;5.366;2023-04-03T10:57:27;6.00;;;1.20;;
69485;SDS011;56677;51.710;5.366;2023-04-03T11:00:06;3.38;;;1.25;;
69485;SDS011;56677;51.710;5.366;2023-04-03T11:05:31;3.20;;;1.80;;
69485;SDS011;56677;51.710;5.366;2023-04-03T11:08:01;4.30;;;1.13;;
69485;SDS011;56677;51.710;5.366;2023-04-03T11:10:44;2.72;;;1.50;;
69485;SDS011;56677;51.710;5.366;2023-04-03T11:13:14;4.00;;;1.30;;
69485;SDS011;56677;51.710;5.366;2023-04-03T11:15:40;7.03;;;1.50;;
69485;SDS011;56677;51.710;5.366;2023-04-03T11:18:08;3.00;;;1.53;;
69485;SDS011;56677;51.710;5.366;2023-04-03T11:20:35;2.47;;;1.30;;
69485;SDS011;56677;51.710;5.366;2023-04-03T11:25:45;5.20;;;1.50;;
69485;SDS011;56677;51.710;5.366;2023-04-03T11:28:13;2.17;;;1.17;;
69485;SDS011;56677;51.710;5.366;2023-04-03T11:30:40;3.65;;;1.55;;
69485;SDS011;56677;51.710;5.366;2023-04-03T11:33:12;3.13;;;1.50;;
69485;SDS011;56677;51.710;5.366;2023-04-03T11:35:43;2.72;;;1.15;;
69485;SDS011;56677;51.710;5.366;2023-04-03T11:38:10;2.88;;;1.30;;
69485;SDS011;56677;51.710;5.366;2023-04-03T11:40:38;4.20;;;1.20;;
69485;SDS011;56677;51.710;5.366;2023-04-03T11:43:05;2.80;;;1.23;;
69485;SDS011;56677;51.710;5.366;2023-04-03T11:45:32;1.98;;;0.93;;
69485;SDS011;56677;51.710;5.366;2023-04-03T12:05:50;3.03;;;1.10;;
69485;SDS011;56677;51.710;5.366;2023-04-03T12:09:01;1.80;;;1.00;;
69485;SDS011;56677;51.710;5.366;2023-04-03T12:13:39;3.58;;;1.20;;
69485;SDS011;56677;51.710;5.366;2023-04-03T12:18:53;4.63;;;1.30;;
69485;SDS011;56677;51.710;5.366;2023-04-03T12:21:20;2.95;;;1.33;;
69485;SDS011;56677;51.710;5.366;2023-04-03T12:26:27;1.77;;;0.90;;
69485;SDS011;56677;51.710;5.366;2023-04-03T12:28:53;3.25;;;1.00;;
69485;SDS011;56677;51.710;5.366;2023-04-03T12:31:18;3.53;;;0.80;;
69485;SDS011;56677;51.710;5.366;2023-04-03T12:33:49;2.05;;;1.10;;
69485;SDS011;56677;51.710;5.366;2023-04-03T12:36:18;3.83;;;1.10;;
69485;SDS011;56677;51.710;5.366;2023-04-03T12:38:57;1.58;;;1.10;;
69485;SDS011;56677;51.710;5.366;2023-04-03T12:46:33;3.45;;;1.48;;
69485;SDS011;56677;51.710;5.366;2023-04-03T12:49:00;2.47;;;1.00;;
69485;SDS011;56677;51.710;5.366;2023-04-03T12:53:56;3.13;;;1.30;;
69485;SDS011;56677;51.710;5.366;2023-04-03T12:56:24;2.25;;;1.23;;
69485;SDS011;56677;51.710;5.366;2023-04-03T12:58:50;1.60;;;1.10;;
69485;SDS011;56677;51.710;5.366;2023-04-03T13:01:16;1.55;;;1.08;;
69485;SDS011;56677;51.710;5.366;2023-04-03T13:03:45;3.15;;;1.30;;
69485;SDS011;56677;51.710;5.366;2023-04-03T13:06:19;1.77;;;1.10;;
69485;SDS011;56677;51.710;5.366;2023-04-03T13:08:57;2.80;;;0.95;;
69485;SDS011;56677;51.710;5.366;2023-04-03T13:11:23;2.47;;;1.42;;
69485;SDS011;56677;51.710;5.366;2023-04-03T13:16:20;2.15;;;1.08;;
69485;SDS011;56677;51.710;5.366;2023-04-03T13:18:50;2.00;;;1.20;;
69485;SDS011;56677;51.710;5.366;2023-04-03T13:21:17;2.40;;;1.10;;
69485;SDS011;56677;51.710;5.366;2023-04-03T13:23:45;3.22;;;1.30;;
69485;SDS011;56677;51.710;5.366;2023-04-03T13:26:10;2.08;;;1.13;;
69485;SDS011;56677;51.710;5.366;2023-04-03T13:28:36;1.73;;;1.20;;
69485;SDS011;56677;51.710;5.366;2023-04-03T13:33:30;4.55;;;1.33;;
69485;SDS011;56677;51.710;5.366;2023-04-03T13:36:06;4.22;;;1.30;;
69485;SDS011;56677;51.710;5.366;2023-04-03T13:38:32;2.40;;;1.05;;
69485;SDS011;56677;51.710;5.366;2023-04-03T13:40:58;2.60;;;1.20;;
69485;SDS011;56677;51.710;5.366;2023-04-03T13:43:25;3.25;;;1.17;;
69485;SDS011;56677;51.710;5.366;2023-04-03T13:48:22;3.35;;;1.65;;
69485;SDS011;56677;51.710;5.366;2023-04-03T13:50:51;1.90;;;1.23;;
69485;SDS011;56677;51.710;5.366;2023-04-03T13:53:17;2.57;;;1.40;;
69485;SDS011;56677;51.710;5.366;2023-04-03T13:58:22;3.33;;;1.25;;
69485;SDS011;56677;51.710;5.366;2023-04-03T14:03:21;2.70;;;1.35;;
69485;SDS011;56677;51.710;5.366;2023-04-03T14:05:46;2.60;;;1.05;;
69485;SDS011;56677;51.710;5.366;2023-04-03T14:08:11;5.83;;;1.20;;
69485;SDS011;56677;51.710;5.366;2023-04-03T14:10:36;2.17;;;1.00;;
69485;SDS011;56677;51.710;5.366;2023-04-03T14:13:02;3.03;;;1.08;;
69485;SDS011;56677;51.710;5.366;2023-04-03T14:15:28;4.03;;;1.10;;
69485;SDS011;56677;51.710;5.366;2023-04-03T14:17:54;4.47;;;1.15;;
69485;SDS011;56677;51.710;5.366;2023-04-03T14:20:20;1.80;;;1.03;;
69485;SDS011;56677;51.710;5.366;2023-04-03T14:22:45;2.55;;;1.20;;
69485;SDS011;56677;51.710;5.366;2023-04-03T14:25:10;2.90;;;1.20;;
69485;SDS011;56677;51.710;5.366;2023-04-03T14:27:37;2.03;;;1.33;;
69485;SDS011;56677;51.710;5.366;2023-04-03T14:30:04;5.40;;;1.23;;
69485;SDS011;56677;51.710;5.366;2023-04-03T14:32:29;4.77;;;1.20;;
69485;SDS011;56677;51.710;5.366;2023-04-03T14:34:55;4.77;;;1.13;;
69485;SDS011;56677;51.710;5.366;2023-04-03T14:37:21;2.75;;;1.30;;
69485;SDS011;56677;51.710;5.366;2023-04-03T14:39:47;2.50;;;1.17;;
69485;SDS011;56677;51.710;5.366;2023-04-03T14:42:19;4.20;;;1.40;;
69485;SDS011;56677;51.710;5.366;2023-04-03T14:44:45;1.85;;;1.10;;
69485;SDS011;56677;51.710;5.366;2023-04-03T14:47:13;1.93;;;1.00;;
69485;SDS011;56677;51.710;5.366;2023-04-03T14:49:39;5.97;;;1.20;;
69485;SDS011;56677;51.710;5.366;2023-04-03T14:52:05;3.83;;;2.23;;
69485;SDS011;56677;51.710;5.366;2023-04-03T14:54:30;2.70;;;1.23;;
69485;SDS011;56677;51.710;5.366;2023-04-03T14:56:56;11.47;;;1.43;;
69485;SDS011;56677;51.710;5.366;2023-04-03T14:59:21;1.73;;;1.15;;
69485;SDS011;56677;51.710;5.366;2023-04-03T15:01:47;2.63;;;1.40;;
69485;SDS011;56677;51.710;5.366;2023-04-03T15:04:15;2.00;;;1.00;;
69485;SDS011;56677;51.710;5.366;2023-04-03T15:06:41;2.90;;;1.40;;
69485;SDS011;56677;51.710;5.366;2023-04-03T15:09:12;2.80;;;1.20;;
69485;SDS011;56677;51.710;5.366;2023-04-03T15:11:40;2.53;;;1.27;;
69485;SDS011;56677;51.710;5.366;2023-04-03T15:14:08;2.67;;;1.30;;
69485;SDS011;56677;51.710;5.366;2023-04-03T15:16:33;4.78;;;1.63;;
69485;SDS011;56677;51.710;5.366;2023-04-03T15:18:58;2.57;;;1.03;;
69485;SDS011;56677;51.710;5.366;2023-04-03T15:21:24;3.83;;;1.48;;
69485;SDS011;56677;51.710;5.366;2023-04-03T15:23:49;1.95;;;1.20;;
69485;SDS011;56677;51.710;5.366;2023-04-03T15:26:14;3.38;;;1.40;;
69485;SDS011;56677;51.710;5.366;2023-04-03T15:28:40;2.87;;;0.90;;
69485;SDS011;56677;51.710;5.366;2023-04-03T15:31:05;2.60;;;0.88;;
69485;SDS011;56677;51.710;5.366;2023-04-03T15:33:31;2.07;;;1.03;;
69485;SDS011;56677;51.710;5.366;2023-04-03T15:35:57;3.45;;;1.00;;
69485;SDS011;56677;51.710;5.366;2023-04-03T15:38:22;1.87;;;1.13;;
69485;SDS011;56677;51.710;5.366;2023-04-03T15:40:47;5.73;;;1.20;;
69485;SDS011;56677;51.710;5.366;2023-04-03T15:43:13;6.37;;;1.00;;
69485;SDS011;56677;51.710;5.366;2023-04-03T15:45:38;4.13;;;1.38;;
69485;SDS011;56677;51.710;5.366;2023-04-03T15:48:04;2.83;;;1.20;;
69485;SDS011;56677;51.710;5.366;2023-04-03T15:50:29;2.63;;;0.97;;
69485;SDS011;56677;51.710;5.366;2023-04-03T15:52:55;2.03;;;0.85;;
69485;SDS011;56677;51.710;5.366;2023-04-03T15:55:21;2.20;;;0.80;;
69485;SDS011;56677;51.710;5.366;2023-04-03T15:57:47;2.85;;;1.00;;
69485;SDS011;56677;51.710;5.366;2023-04-03T16:00:12;4.63;;;2.63;;
69485;SDS011;56677;51.710;5.366;2023-04-03T16:02:37;10.33;;;4.77;;
69485;SDS011;56677;51.710;5.366;2023-04-03T16:05:03;16.00;;;7.80;;
69485;SDS011;56677;51.710;5.366;2023-04-03T16:07:28;14.70;;;6.90;;
69485;SDS011;56677;51.710;5.366;2023-04-03T16:09:53;14.63;;;7.00;;
69485;SDS011;56677;51.710;5.366;2023-04-03T16:12:18;13.57;;;7.20;;
69485;SDS011;56677;51.710;5.366;2023-04-03T16:14:43;16.50;;;8.33;;
69485;SDS011;56677;51.710;5.366;2023-04-03T16:17:08;15.63;;;8.67;;
69485;SDS011;56677;51.710;5.366;2023-04-03T16:19:33;18.10;;;9.25;;
69485;SDS011;56677;51.710;5.366;2023-04-03T16:21:59;15.33;;;9.17;;
69485;SDS011;56677;51.710;5.366;2023-04-03T16:24:24;19.90;;;9.93;;
69485;SDS011;56677;51.710;5.366;2023-04-03T16:26:49;14.67;;;8.60;;
69485;SDS011;56677;51.710;5.366;2023-04-03T16:29:14;16.67;;;9.30;;
69485;SDS011;56677;51.710;5.366;2023-04-03T16:31:39;17.35;;;9.40;;
69485;SDS011;56677;51.710;5.366;2023-04-03T16:34:04;15.93;;;9.15;;
69485;SDS011;56677;51.710;5.366;2023-04-03T16:36:30;17.80;;;9.30;;
69485;SDS011;56677;51.710;5.366;2023-04-03T16:38:55;15.43;;;8.73;;
69485;SDS011;56677;51.710;5.366;2023-04-03T16:41:20;17.97;;;9.07;;
69485;SDS011;56677;51.710;5.366;2023-04-03T16:43:45;15.93;;;9.10;;
69485;SDS011;56677;51.710;5.366;2023-04-03T16:46:10;18.67;;;9.00;;
69485;SDS011;56677;51.710;5.366;2023-04-03T16:48:35;17.73;;;8.45;;
69485;SDS011;56677;51.710;5.366;2023-04-03T16:51:00;13.75;;;8.50;;
69485;SDS011;56677;51.710;5.366;2023-04-03T16:53:26;21.13;;;8.90;;
69485;SDS011;56677;51.710;5.366;2023-04-03T16:55:51;13.13;;;7.60;;
69485;SDS011;56677;51.710;5.366;2023-04-03T16:58:16;16.75;;;8.88;;
69485;SDS011;56677;51.710;5.366;2023-04-03T17:00:42;16.57;;;8.37;;
69485;SDS011;56677;51.710;5.366;2023-04-03T17:03:07;16.97;;;7.33;;
69485;SDS011;56677;51.710;5.366;2023-04-03T17:05:32;16.53;;;7.60;;
69485;SDS011;56677;51.710;5.366;2023-04-03T17:07:57;13.93;;;7.78;;
69485;SDS011;56677;51.710;5.366;2023-04-03T17:10:22;15.23;;;7.70;;
69485;SDS011;56677;51.710;5.366;2023-04-03T17:12:48;14.07;;;7.40;;
69485;SDS011;56677;51.710;5.366;2023-04-03T17:15:13;13.40;;;7.28;;
69485;SDS011;56677;51.710;5.366;2023-04-03T17:17:38;15.55;;;7.35;;
69485;SDS011;56677;51.710;5.366;2023-04-03T17:20:03;12.23;;;6.67;;
69485;SDS011;56677;51.710;5.366;2023-04-03T17:22:29;15.30;;;6.77;;
69485;SDS011;56677;51.710;5.366;2023-04-03T17:24:54;14.57;;;6.70;;
69485;SDS011;56677;51.710;5.366;2023-04-03T17:27:19;10.57;;;6.50;;
69485;SDS011;56677;51.710;5.366;2023-04-03T17:29:44;13.27;;;7.30;;
69485;SDS011;56677;51.710;5.366;2023-04-03T17:32:09;14.85;;;6.47;;
69485;SDS011;56677;51.710;5.366;2023-04-03T17:34:35;11.63;;;6.10;;
69485;SDS011;56677;51.710;5.366;2023-04-03T17:37:00;11.80;;;6.20;;
69485;SDS011;56677;51.710;5.366;2023-04-03T17:39:25;12.38;;;5.35;;
69485;SDS011;56677;51.710;5.366;2023-04-03T17:41:50;14.00;;;6.43;;
69485;SDS011;56677;51.710;5.366;2023-04-03T17:44:15;12.20;;;6.20;;
69485;SDS011;56677;51.710;5.366;2023-04-03T17:46:41;12.23;;;5.43;;
69485;SDS011;56677;51.710;5.366;2023-04-03T17:49:06;13.30;;;5.63;;
69485;SDS011;56677;51.710;5.366;2023-04-03T17:51:31;9.40;;;5.10;;
69485;SDS011;56677;51.710;5.366;2023-04-03T17:53:56;9.35;;;5.40;;
69485;SDS011;56677;51.710;5.366;2023-04-03T17:56:22;11.65;;;5.55;;
69485;SDS011;56677;51.710;5.366;2023-04-03T17:58:48;9.38;;;4.93;;
69485;SDS011;56677;51.710;5.366;2023-04-03T18:01:15;14.32;;;5.70;;
69485;SDS011;56677;51.710;5.366;2023-04-03T18:03:40;10.80;;;4.97;;
69485;SDS011;56677;51.710;5.366;2023-04-03T18:06:07;8.70;;;4.93;;
69485;SDS011;56677;51.710;5.366;2023-04-03T18:08:36;9.23;;;4.57;;
69485;SDS011;56677;51.710;5.366;2023-04-03T18:11:02;8.13;;;4.78;;
69485;SDS011;56677;51.710;5.366;2023-04-03T18:13:27;9.67;;;4.10;;
69485;SDS011;56677;51.710;5.366;2023-04-03T18:15:53;8.67;;;4.20;;
69485;SDS011;56677;51.710;5.366;2023-04-03T18:18:18;8.37;;;3.83;;
69485;SDS011;56677;51.710;5.366;2023-04-03T18:20:43;10.55;;;4.30;;
69485;SDS011;56677;51.710;5.366;2023-04-03T18:23:08;8.63;;;3.87;;
69485;SDS011;56677;51.710;5.366;2023-04-03T18:25:35;9.70;;;4.37;;
69485;SDS011;56677;51.710;5.366;2023-04-03T18:28:00;9.15;;;4.10;;
69485;SDS011;56677;51.710;5.366;2023-04-03T18:30:26;11.63;;;4.30;;
69485;SDS011;56677;51.710;5.366;2023-04-03T18:32:51;9.60;;;3.87;;
69485;SDS011;56677;51.710;5.366;2023-04-03T18:35:16;9.63;;;4.20;;
69485;SDS011;56677;51.710;5.366;2023-04-03T18:37:41;10.57;;;4.83;;
69485;SDS011;56677;51.710;5.366;2023-04-03T18:40:07;8.03;;;4.13;;
69485;SDS011;56677;51.710;5.366;2023-04-03T18:42:32;8.53;;;4.10;;
69485;SDS011;56677;51.710;5.366;2023-04-03T18:44:58;6.87;;;3.77;;
69485;SDS011;56677;51.710;5.366;2023-04-03T18:47:26;8.90;;;3.95;;
69485;SDS011;56677;51.710;5.366;2023-04-03T18:49:51;7.03;;;3.10;;
69485;SDS011;56677;51.710;5.366;2023-04-03T18:52:16;8.27;;;3.70;;
69485;SDS011;56677;51.710;5.366;2023-04-03T18:54:41;6.87;;;3.47;;
69485;SDS011;56677;51.710;5.366;2023-04-03T18:57:07;7.13;;;3.10;;
69485;SDS011;56677;51.710;5.366;2023-04-03T18:59:32;6.87;;;3.20;;
69485;SDS011;56677;51.710;5.366;2023-04-03T19:01:57;7.13;;;3.20;;
69485;SDS011;56677;51.710;5.366;2023-04-03T19:04:22;7.40;;;3.10;;
69485;SDS011;56677;51.710;5.366;2023-04-03T19:06:48;6.10;;;3.10;;
69485;SDS011;56677;51.710;5.366;2023-04-03T19:09:13;7.40;;;3.60;;
69485;SDS011;56677;51.710;5.366;2023-04-03T19:11:38;6.57;;;3.23;;
69485;SDS011;56677;51.710;5.366;2023-04-03T19:14:04;7.63;;;3.47;;
69485;SDS011;56677;51.710;5.366;2023-04-03T19:16:29;7.40;;;2.92;;
69485;SDS011;56677;51.710;5.366;2023-04-03T19:18:54;6.95;;;3.17;;
69485;SDS011;56677;51.710;5.366;2023-04-03T19:21:19;7.70;;;3.40;;
69485;SDS011;56677;51.710;5.366;2023-04-03T19:23:44;6.00;;;3.08;;
69485;SDS011;56677;51.710;5.366;2023-04-03T19:26:10;8.05;;;3.50;;
69485;SDS011;56677;51.710;5.366;2023-04-03T19:28:35;5.93;;;3.03;;
69485;SDS011;56677;51.710;5.366;2023-04-03T19:31:01;6.28;;;3.15;;
69485;SDS011;56677;51.710;5.366;2023-04-03T19:33:26;6.13;;;3.28;;
69485;SDS011;56677;51.710;5.366;2023-04-03T19:35:53;7.40;;;3.17;;
69485;SDS011;56677;51.710;5.366;2023-04-03T19:38:18;6.63;;;2.93;;
69485;SDS011;56677;51.710;5.366;2023-04-03T19:40:43;5.18;;;2.80;;
69485;SDS011;56677;51.710;5.366;2023-04-03T19:43:09;5.33;;;2.77;;
69485;SDS011;56677;51.710;5.366;2023-04-03T19:45:35;5.07;;;2.90;;
69485;SDS011;56677;51.710;5.366;2023-04-03T19:48:00;6.20;;;3.00;;
69485;SDS011;56677;51.710;5.366;2023-04-03T19:50:25;7.40;;;3.00;;
69485;SDS011;56677;51.710;5.366;2023-04-03T19:52:50;5.85;;;2.88;;
69485;SDS011;56677;51.710;5.366;2023-04-03T19:55:15;5.77;;;2.57;;
69485;SDS011;56677;51.710;5.366;2023-04-03T19:57:41;5.40;;;2.80;;
69485;SDS011;56677;51.710;5.366;2023-04-03T20:00:06;5.60;;;2.65;;
69485;SDS011;56677;51.710;5.366;2023-04-03T20:02:31;5.33;;;2.60;;
69485;SDS011;56677;51.710;5.366;2023-04-03T20:04:56;6.03;;;3.10;;
69485;SDS011;56677;51.710;5.366;2023-04-03T20:07:21;6.20;;;2.80;;
69485;SDS011;56677;51.710;5.366;2023-04-03T20:09:46;5.57;;;2.60;;
69485;SDS011;56677;51.710;5.366;2023-04-03T20:12:11;6.20;;;2.78;;
69485;SDS011;56677;51.710;5.366;2023-04-03T20:14:37;6.18;;;2.88;;
69485;SDS011;56677;51.710;5.366;2023-04-03T20:17:02;5.50;;;2.58;;
69485;SDS011;56677;51.710;5.366;2023-04-03T20:19:27;4.13;;;2.70;;
69485;SDS011;56677;51.710;5.366;2023-04-03T20:21:52;4.95;;;2.80;;
69485;SDS011;56677;51.710;5.366;2023-04-03T20:24:18;4.75;;;2.88;;
69485;SDS011;56677;51.710;5.366;2023-04-03T20:26:43;6.07;;;2.60;;
69485;SDS011;56677;51.710;5.366;2023-04-03T20:29:08;5.03;;;2.42;;
69485;SDS011;56677;51.710;5.366;2023-04-03T20:31:33;6.10;;;2.63;;
69485;SDS011;56677;51.710;5.366;2023-04-03T20:33:58;4.78;;;2.88;;
69485;SDS011;56677;51.710;5.366;2023-04-03T20:36:23;6.05;;;2.70;;
69485;SDS011;56677;51.710;5.366;2023-04-03T20:38:49;4.88;;;2.35;;
69485;SDS011;56677;51.710;5.366;2023-04-03T20:41:14;4.43;;;2.75;;
69485;SDS011;56677;51.710;5.366;2023-04-03T20:43:40;4.65;;;2.40;;
69485;SDS011;56677;51.710;5.366;2023-04-03T20:46:05;5.20;;;2.20;;
69485;SDS011;56677;51.710;5.366;2023-04-03T20:48:31;7.22;;;2.75;;
69485;SDS011;56677;51.710;5.366;2023-04-03T20:50:56;5.97;;;2.50;;
69485;SDS011;56677;51.710;5.366;2023-04-03T20:53:21;4.17;;;2.47;;
69485;SDS011;56677;51.710;5.366;2023-04-03T20:55:56;5.32;;;2.80;;
69485;SDS011;56677;51.710;5.366;2023-04-03T20:58:21;4.70;;;2.33;;
69485;SDS011;56677;51.710;5.366;2023-04-03T21:00:46;4.10;;;2.40;;
69485;SDS011;56677;51.710;5.366;2023-04-03T21:03:11;5.03;;;2.70;;
69485;SDS011;56677;51.710;5.366;2023-04-03T21:05:36;4.68;;;2.28;;
69485;SDS011;56677;51.710;5.366;2023-04-03T21:21:21;5.38;;;2.78;;
69485;SDS011;56677;51.710;5.366;2023-04-03T21:23:47;4.75;;;2.42;;
69485;SDS011;56677;51.710;5.366;2023-04-03T21:26:12;4.63;;;2.70;;
69485;SDS011;56677;51.710;5.366;2023-04-03T21:28:37;4.78;;;2.53;;
